PHBLA EHLE-EDLE
Flight info
| Callsign | PHBLA |
|---|---|
| Flight time | 0h 37m |
| Altitude | 1500 |
| Route | BRAVO DCT SHEERENBERG DCT DINSLAKEN DCT |
| Aircraft | AS50/L-SY/S |
Departure
| Time | 2026-04-28 19:07 |
|---|---|
| Airport | Lelystad Airport (EHLE) |
Arrival
| Time | 2026-04-28 19:44 |
|---|---|
| Airport | Essen-Mülheim Airport (EDLE) |
| Time | Latitude | Longitude | Altitude | Speed | Heading |
|---|---|---|---|---|---|
| 2026-04-28 18:47 | 52.45320 | 5.51932 | -10 ft | 0 kts | 226° |
| 2026-04-28 19:06 | 52.45340 | 5.51901 | 0 ft | 13 kts | 19° |
| 2026-04-28 19:07 | 52.45437 | 5.51875 | -4 ft | 31 kts | 321° |
| 2026-04-28 19:07 | 52.45598 | 5.51943 | 11 ft | 56 kts | 46° |
| 2026-04-28 19:07 | 52.45896 | 5.52458 | 472 ft | 57 kts | 41° |
| 2026-04-28 19:07 | 52.46213 | 5.52991 | 873 ft | 73 kts | 48° |
| 2026-04-28 19:08 | 52.46597 | 5.53749 | 1004 ft | 94 kts | 60° |
| 2026-04-28 19:08 | 52.46281 | 5.54802 | 1026 ft | 128 kts | 133° |
| 2026-04-28 19:08 | 52.45374 | 5.54802 | 992 ft | 159 kts | 210° |
| 2026-04-28 19:08 | 52.44551 | 5.53560 | 1042 ft | 156 kts | 212° |
| 2026-04-28 19:09 | 52.43573 | 5.53369 | 1066 ft | 134 kts | 142° |
| 2026-04-28 19:09 | 52.42929 | 5.54420 | 996 ft | 132 kts | 120° |
| 2026-04-28 19:09 | 52.42332 | 5.55546 | 1037 ft | 131 kts | 122° |
| 2026-04-28 19:09 | 52.41744 | 5.56632 | 1201 ft | 111 kts | 122° |
| 2026-04-28 19:10 | 52.41107 | 5.57610 | 1008 ft | 136 kts | 130° |
| 2026-04-28 19:10 | 52.40353 | 5.58590 | 952 ft | 140 kts | 140° |
| 2026-04-28 19:10 | 52.39539 | 5.59334 | 1156 ft | 136 kts | 147° |
| 2026-04-28 19:10 | 52.38690 | 5.60015 | 1213 ft | 137 kts | 143° |
| 2026-04-28 19:11 | 52.37838 | 5.60776 | 1214 ft | 140 kts | 142° |
| 2026-04-28 19:11 | 52.37033 | 5.61666 | 1252 ft | 138 kts | 135° |
| 2026-04-28 19:11 | 52.36297 | 5.62614 | 1389 ft | 131 kts | 133° |
| 2026-04-28 19:11 | 52.35610 | 5.63585 | 1475 ft | 130 kts | 131° |
| 2026-04-28 19:12 | 52.34948 | 5.64589 | 1480 ft | 129 kts | 128° |
| 2026-04-28 19:12 | 52.34331 | 5.65667 | 1497 ft | 131 kts | 125° |
| 2026-04-28 19:12 | 52.33709 | 5.66771 | 1498 ft | 133 kts | 126° |
| 2026-04-28 19:12 | 52.33062 | 5.67859 | 1498 ft | 133 kts | 128° |
| 2026-04-28 19:13 | 52.32393 | 5.68910 | 1500 ft | 133 kts | 129° |
| 2026-04-28 19:13 | 52.31709 | 5.69928 | 1499 ft | 133 kts | 130° |
| 2026-04-28 19:13 | 52.31012 | 5.70927 | 1499 ft | 133 kts | 131° |
| 2026-04-28 19:13 | 52.30309 | 5.71916 | 1490 ft | 134 kts | 131° |
| 2026-04-28 19:14 | 52.29601 | 5.72899 | 1500 ft | 134 kts | 131° |
| 2026-04-28 19:14 | 52.28891 | 5.73879 | 1501 ft | 134 kts | 131° |
| 2026-04-28 19:14 | 52.28177 | 5.74864 | 1528 ft | 136 kts | 134° |
| 2026-04-28 19:14 | 52.27448 | 5.75874 | 1515 ft | 141 kts | 134° |
| 2026-04-28 19:15 | 52.26695 | 5.76913 | 1505 ft | 142 kts | 135° |
| 2026-04-28 19:15 | 52.25935 | 5.77956 | 1501 ft | 142 kts | 135° |
| 2026-04-28 19:15 | 52.25178 | 5.78996 | 1500 ft | 143 kts | 134° |
| 2026-04-28 19:15 | 52.24677 | 5.79687 | 1496 ft | 143 kts | 134° |
| 2026-04-28 19:16 | 52.23659 | 5.81092 | 1497 ft | 143 kts | 134° |
| 2026-04-28 19:16 | 52.22898 | 5.82144 | 1495 ft | 143 kts | 134° |
| 2026-04-28 19:16 | 52.22137 | 5.83196 | 1493 ft | 143 kts | 134° |
| 2026-04-28 19:16 | 52.21376 | 5.84248 | 1496 ft | 143 kts | 134° |
| 2026-04-28 19:17 | 52.20615 | 5.85299 | 1493 ft | 143 kts | 134° |
| 2026-04-28 19:17 | 52.19965 | 5.86484 | 1493 ft | 138 kts | 116° |
| 2026-04-28 19:17 | 52.19597 | 5.87913 | 1492 ft | 136 kts | 105° |
| 2026-04-28 19:17 | 52.19357 | 5.89371 | 1493 ft | 134 kts | 98° |
| 2026-04-28 19:18 | 52.19176 | 5.90876 | 1495 ft | 133 kts | 99° |
| 2026-04-28 19:18 | 52.18913 | 5.92306 | 1490 ft | 134 kts | 109° |
| 2026-04-28 19:18 | 52.18432 | 5.93622 | 1495 ft | 137 kts | 121° |
| 2026-04-28 19:18 | 52.17784 | 5.94782 | 1493 ft | 140 kts | 130° |
| 2026-04-28 19:19 | 52.17019 | 5.95773 | 1518 ft | 139 kts | 137° |
| 2026-04-28 19:19 | 52.16278 | 5.96782 | 1515 ft | 140 kts | 132° |
| 2026-04-28 19:19 | 52.15559 | 5.97853 | 1504 ft | 140 kts | 131° |
| 2026-04-28 19:19 | 52.14835 | 5.98912 | 1502 ft | 140 kts | 132° |
| 2026-04-28 19:20 | 52.14093 | 5.99946 | 1497 ft | 140 kts | 134° |
| 2026-04-28 19:20 | 52.13337 | 6.00955 | 1497 ft | 140 kts | 134° |
| 2026-04-28 19:20 | 52.12573 | 6.01943 | 1496 ft | 140 kts | 135° |
| 2026-04-28 19:20 | 52.11805 | 6.02919 | 1495 ft | 140 kts | 135° |
| 2026-04-28 19:21 | 52.11043 | 6.03880 | 1494 ft | 140 kts | 135° |
| 2026-04-28 19:21 | 52.10275 | 6.04848 | 1494 ft | 140 kts | 135° |
| 2026-04-28 19:21 | 52.09505 | 6.05820 | 1491 ft | 140 kts | 135° |
| 2026-04-28 19:21 | 52.08741 | 6.06789 | 1494 ft | 139 kts | 135° |
| 2026-04-28 19:22 | 52.07980 | 6.07756 | 1496 ft | 138 kts | 135° |
| 2026-04-28 19:22 | 52.07479 | 6.08394 | 1496 ft | 138 kts | 135° |
| 2026-04-28 19:22 | 52.06473 | 6.09678 | 1494 ft | 137 kts | 135° |
| 2026-04-28 19:22 | 52.05724 | 6.10637 | 1493 ft | 137 kts | 135° |
| 2026-04-28 19:23 | 52.04975 | 6.11598 | 1494 ft | 137 kts | 135° |
| 2026-04-28 19:23 | 52.04225 | 6.12564 | 1493 ft | 138 kts | 135° |
| 2026-04-28 19:23 | 52.03471 | 6.13535 | 1492 ft | 138 kts | 135° |
| 2026-04-28 19:23 | 52.02717 | 6.14506 | 1489 ft | 139 kts | 134° |
| 2026-04-28 19:24 | 52.01960 | 6.15485 | 1495 ft | 139 kts | 134° |
| 2026-04-28 19:24 | 52.01200 | 6.16465 | 1490 ft | 139 kts | 134° |
| 2026-04-28 19:24 | 52.00441 | 6.17446 | 1491 ft | 140 kts | 135° |
| 2026-04-28 19:24 | 51.99689 | 6.18416 | 1491 ft | 140 kts | 136° |
| 2026-04-28 19:25 | 51.98927 | 6.19399 | 1492 ft | 140 kts | 135° |
| 2026-04-28 19:25 | 51.98164 | 6.20383 | 1490 ft | 140 kts | 134° |
| 2026-04-28 19:25 | 51.97400 | 6.21366 | 1487 ft | 140 kts | 136° |
| 2026-04-28 19:25 | 51.96640 | 6.22346 | 1489 ft | 140 kts | 136° |
| 2026-04-28 19:26 | 51.95879 | 6.23324 | 1491 ft | 139 kts | 136° |
| 2026-04-28 19:26 | 51.95119 | 6.24300 | 1488 ft | 139 kts | 136° |
| 2026-04-28 19:26 | 51.94361 | 6.25275 | 1488 ft | 139 kts | 136° |
| 2026-04-28 19:26 | 51.93607 | 6.26244 | 1489 ft | 139 kts | 136° |
| 2026-04-28 19:27 | 51.92850 | 6.27217 | 1489 ft | 138 kts | 135° |
| 2026-04-28 19:27 | 51.92097 | 6.28184 | 1486 ft | 137 kts | 136° |
| 2026-04-28 19:27 | 51.91349 | 6.29138 | 1488 ft | 136 kts | 136° |
| 2026-04-28 19:27 | 51.90617 | 6.30071 | 1486 ft | 135 kts | 136° |
| 2026-04-28 19:28 | 51.89881 | 6.31009 | 1484 ft | 135 kts | 135° |
| 2026-04-28 19:28 | 51.89148 | 6.31950 | 1482 ft | 134 kts | 135° |
| 2026-04-28 19:28 | 51.88416 | 6.32891 | 1475 ft | 134 kts | 135° |
| 2026-04-28 19:28 | 51.87683 | 6.33834 | 1476 ft | 134 kts | 135° |
| 2026-04-28 19:29 | 51.86952 | 6.34774 | 1478 ft | 135 kts | 134° |
| 2026-04-28 19:29 | 51.86455 | 6.35419 | 1484 ft | 137 kts | 134° |
| 2026-04-28 19:29 | 51.85466 | 6.36706 | 1480 ft | 138 kts | 134° |
| 2026-04-28 19:29 | 51.84712 | 6.37681 | 1478 ft | 139 kts | 134° |
| 2026-04-28 19:30 | 51.83956 | 6.38651 | 1476 ft | 139 kts | 134° |
| 2026-04-28 19:30 | 51.83196 | 6.39622 | 1477 ft | 139 kts | 134° |
| 2026-04-28 19:30 | 51.82436 | 6.40592 | 1477 ft | 139 kts | 134° |
| 2026-04-28 19:30 | 51.81677 | 6.41559 | 1478 ft | 139 kts | 134° |
| 2026-04-28 19:31 | 51.80918 | 6.42526 | 1479 ft | 139 kts | 134° |
| 2026-04-28 19:31 | 51.80168 | 6.43480 | 1477 ft | 139 kts | 134° |
| 2026-04-28 19:31 | 51.79396 | 6.44458 | 1477 ft | 139 kts | 135° |
| 2026-04-28 19:31 | 51.78627 | 6.45420 | 1475 ft | 140 kts | 135° |
| 2026-04-28 19:32 | 51.77869 | 6.46369 | 1474 ft | 139 kts | 135° |
| 2026-04-28 19:32 | 51.77106 | 6.47327 | 1472 ft | 139 kts | 135° |
| 2026-04-28 19:32 | 51.76345 | 6.48289 | 1474 ft | 139 kts | 134° |
| 2026-04-28 19:32 | 51.75586 | 6.49254 | 1477 ft | 139 kts | 134° |
| 2026-04-28 19:33 | 51.74829 | 6.50219 | 1474 ft | 139 kts | 134° |
| 2026-04-28 19:33 | 51.74071 | 6.51184 | 1474 ft | 139 kts | 134° |
| 2026-04-28 19:33 | 51.73314 | 6.52148 | 1474 ft | 139 kts | 134° |
| 2026-04-28 19:33 | 51.72555 | 6.53116 | 1471 ft | 139 kts | 134° |
| 2026-04-28 19:34 | 51.71831 | 6.54053 | 1473 ft | 138 kts | 133° |
| 2026-04-28 19:34 | 51.71090 | 6.55030 | 1474 ft | 137 kts | 133° |
| 2026-04-28 19:34 | 51.70355 | 6.56018 | 1475 ft | 138 kts | 132° |
| 2026-04-28 19:34 | 51.69629 | 6.57029 | 1473 ft | 141 kts | 131° |
| 2026-04-28 19:35 | 51.68896 | 6.58077 | 1472 ft | 141 kts | 130° |
| 2026-04-28 19:35 | 51.68172 | 6.59136 | 1469 ft | 140 kts | 130° |
| 2026-04-28 19:35 | 51.67457 | 6.60203 | 1471 ft | 140 kts | 129° |
| 2026-04-28 19:35 | 51.66751 | 6.61281 | 1474 ft | 140 kts | 129° |
| 2026-04-28 19:36 | 51.65993 | 6.62302 | 1475 ft | 141 kts | 132° |
| 2026-04-28 19:36 | 51.65246 | 6.63329 | 1472 ft | 141 kts | 132° |
| 2026-04-28 19:36 | 51.64491 | 6.64341 | 1472 ft | 141 kts | 133° |
| 2026-04-28 19:36 | 51.63717 | 6.65320 | 1473 ft | 142 kts | 134° |
| 2026-04-28 19:37 | 51.62924 | 6.66278 | 1472 ft | 142 kts | 135° |
| 2026-04-28 19:37 | 51.62396 | 6.66905 | 1472 ft | 143 kts | 135° |
| 2026-04-28 19:37 | 51.61324 | 6.68173 | 1471 ft | 143 kts | 135° |
| 2026-04-28 19:37 | 51.60528 | 6.69121 | 1468 ft | 142 kts | 135° |
| 2026-04-28 19:38 | 51.59737 | 6.70073 | 1468 ft | 142 kts | 135° |
| 2026-04-28 19:38 | 51.58946 | 6.71033 | 1467 ft | 142 kts | 135° |
| 2026-04-28 19:38 | 51.58156 | 6.71995 | 1465 ft | 142 kts | 134° |
| 2026-04-28 19:38 | 51.57366 | 6.72960 | 1461 ft | 143 kts | 134° |
| 2026-04-28 19:39 | 51.56575 | 6.73925 | 1461 ft | 143 kts | 135° |
| 2026-04-28 19:39 | 51.55782 | 6.74890 | 1461 ft | 143 kts | 135° |
| 2026-04-28 19:39 | 51.54999 | 6.75846 | 1458 ft | 143 kts | 135° |
| 2026-04-28 19:39 | 51.54196 | 6.76828 | 1457 ft | 143 kts | 135° |
| 2026-04-28 19:40 | 51.53414 | 6.77780 | 1454 ft | 143 kts | 135° |
| 2026-04-28 19:40 | 51.52626 | 6.78738 | 1455 ft | 142 kts | 135° |
| 2026-04-28 19:40 | 51.51841 | 6.79691 | 1460 ft | 141 kts | 135° |
| 2026-04-28 19:40 | 51.51060 | 6.80643 | 1457 ft | 141 kts | 135° |
| 2026-04-28 19:41 | 51.50278 | 6.81594 | 1453 ft | 141 kts | 135° |
| 2026-04-28 19:41 | 51.49497 | 6.82544 | 1454 ft | 141 kts | 135° |
| 2026-04-28 19:41 | 51.48713 | 6.83499 | 1452 ft | 141 kts | 135° |
| 2026-04-28 19:41 | 51.47931 | 6.84449 | 1453 ft | 141 kts | 135° |
| 2026-04-28 19:42 | 51.47151 | 6.85398 | 1452 ft | 141 kts | 135° |
| 2026-04-28 19:42 | 51.46622 | 6.86041 | 1453 ft | 141 kts | 135° |
| 2026-04-28 19:42 | 51.45853 | 6.86975 | 1453 ft | 141 kts | 135° |
| 2026-04-28 19:42 | 51.45073 | 6.87922 | 1452 ft | 140 kts | 135° |
| 2026-04-28 19:43 | 51.44297 | 6.88863 | 1450 ft | 139 kts | 135° |
| 2026-04-28 19:43 | 51.43525 | 6.89799 | 1451 ft | 139 kts | 135° |
| 2026-04-28 19:43 | 51.42758 | 6.90727 | 1462 ft | 130 kts | 135° |
| 2026-04-28 19:43 | 51.42110 | 6.91335 | 1267 ft | 109 kts | 138° |
| 2026-04-28 19:44 | 51.41576 | 6.92052 | 935 ft | 95 kts | 122° |
| 2026-04-28 19:44 | 51.41233 | 6.92817 | 943 ft | 76 kts | 116° |
| 2026-04-28 19:44 | 51.40977 | 6.93468 | 879 ft | 63 kts | 119° |
| 2026-04-28 19:44 | 51.40735 | 6.93949 | 640 ft | 47 kts | 150° |
| 2026-04-28 19:45 | 51.40553 | 6.94083 | 456 ft | 7 kts | 162° |
| 2026-04-28 19:45 | 51.40575 | 6.94034 | 424 ft | 16 kts | 346° |
| 2026-04-28 19:45 | 51.40634 | 6.93971 | 420 ft | 10 kts | 287° |
| 2026-04-28 19:45 | 51.40645 | 6.93927 | 408 ft | 2 kts | 222° |
| 2026-04-28 19:46 | 51.40644 | 6.93922 | 402 ft | 1 kts | 225° |